Time;durP1;ratioP1;P1;durP2;ratioP2;P2;SDS_P1;SDS_P2;PMS_P1;PMS_P2;Temp;Humidity;BMP_temperature;BMP_pressure;BME280_temperature;BME280_humidity;BME280_pressure;Samples;Min_cycle;Max_cycle;Signal;HPM_P1;HPM_P2
2021/10/09 00:00:48;;;;;;;15.40;3.60;;;;;;;3.34;51.90;102705.02;1607314;89;21134;-89
2021/10/09 00:03:13;;;;;;;12.05;3.90;;;;;;;3.31;52.19;102705.34;1601571;88;20929;-91
2021/10/09 00:05:39;;;;;;;8.23;3.10;;;;;;;3.27;52.36;102702.66;1600780;89;21768;-90
2021/10/09 00:08:12;;;;;;;10.95;3.47;;;;;;;3.26;52.79;102698.31;1600807;89;20877;-90
2021/10/09 00:10:33;;;;;;;11.12;2.77;;;;;;;3.25;52.52;102697.98;1641393;83;21574;-89
2021/10/09 00:12:59;;;;;;;8.75;3.20;;;;;;;3.23;52.57;102697.30;1697274;83;21050;-90
2021/10/09 00:15:25;;;;;;;11.22;3.08;;;;;;;3.18;52.82;102695.13;1697078;83;20899;-91
2021/10/09 00:17:52;;;;;;;12.55;3.17;;;;;;;3.14;52.95;102696.42;1697520;83;20998;-89
2021/10/09 00:20:18;;;;;;;9.40;3.30;;;;;;;3.10;52.93;102697.74;1697022;83;21018;-91
2021/10/09 00:22:44;;;;;;;7.25;3.17;;;;;;;3.06;53.15;102696.37;1697160;83;20959;-90
2021/10/09 00:25:10;;;;;;;11.95;3.08;;;;;;;3.03;53.10;102692.69;1697222;84;21672;-91
2021/10/09 00:27:36;;;;;;;8.73;2.75;;;;;;;3.02;53.13;102689.70;1697213;83;21054;-91
2021/10/09 00:30:06;;;;;;;8.60;2.90;;;;;;;2.99;53.23;102685.52;1697306;83;21015;-90
2021/10/09 00:32:32;;;;;;;10.68;3.72;;;;;;;2.96;53.58;102684.50;1697051;83;21061;-90
2021/10/09 00:34:58;;;;;;;8.70;3.40;;;;;;;2.92;53.74;102687.98;1671523;83;21665;-91
2021/10/09 00:37:24;;;;;;;7.15;2.60;;;;;;;2.90;53.89;102692.62;1697182;83;21114;-90
2021/10/09 00:39:50;;;;;;;11.25;2.80;;;;;;;2.89;53.80;102688.80;1697551;83;20900;-91
2021/10/09 00:42:16;;;;;;;8.00;2.70;;;;;;;2.89;53.96;102688.30;1697115;83;21675;-89
2021/10/09 00:44:42;;;;;;;8.10;3.17;;;;;;;2.87;54.16;102689.45;1697260;83;21487;-90
2021/10/09 00:47:08;;;;;;;16.02;3.00;;;;;;;2.83;54.35;102680.94;1697252;83;20942;-89
2021/10/09 00:49:34;;;;;;;11.25;3.05;;;;;;;2.81;54.77;102683.42;1697346;83;21779;-90
2021/10/09 00:52:05;;;;;;;9.70;2.85;;;;;;;2.78;54.67;102683.23;1671110;84;20998;-91
2021/10/09 00:54:36;;;;;;;10.90;3.25;;;;;;;2.77;54.88;102682.91;1697170;83;21050;-89
2021/10/09 00:57:03;;;;;;;14.20;3.05;;;;;;;2.76;54.81;102680.38;1672047;84;21298;-89
2021/10/09 00:59:29;;;;;;;6.83;2.92;;;;;;;2.73;55.01;102680.19;1697582;83;21070;-90
2021/10/09 01:01:58;;;;;;;10.15;2.90;;;;;;;2.73;55.07;102677.53;1691451;83;21211;-90
2021/10/09 01:04:24;;;;;;;8.03;2.67;;;;;;;2.71;55.42;102679.03;1629750;86;21018;-90
2021/10/09 01:06:50;;;;;;;5.37;2.17;;;;;;;2.71;55.11;102683.03;1634405;86;21029;-90
2021/10/09 01:09:16;;;;;;;11.12;3.95;;;;;;;2.71;55.21;102679.03;1659268;85;20899;-90
2021/10/09 01:11:43;;;;;;;9.13;4.30;;;;;;;2.69;55.45;102682.84;1659316;85;21053;-90
2021/10/09 01:14:10;;;;;;;10.70;2.90;;;;;;;2.68;55.54;102683.84;1654234;85;21422;-90
2021/10/09 01:16:36;;;;;;;8.90;3.22;;;;;;;2.66;55.61;102684.48;1658986;85;21061;-89
2021/10/09 01:19:02;;;;;;;8.13;2.80;;;;;;;2.64;55.67;102681.96;1659220;85;21001;-91
2021/10/09 01:21:42;;;;;;;8.68;3.25;;;;;;;2.64;55.67;102681.96;1658944;85;21050;-90
2021/10/09 01:24:09;;;;;;;8.63;2.67;;;;;;;2.63;55.98;102686.95;1658409;85;21483;-90
2021/10/09 01:26:35;;;;;;;6.72;2.70;;;;;;;2.60;56.26;102687.77;1659283;85;22279;-89
2021/10/09 01:29:04;;;;;;;13.72;3.05;;;;;;;2.59;56.26;102690.07;1659129;85;21631;-90
2021/10/09 01:31:32;;;;;;;7.97;3.10;;;;;;;2.55;56.95;102696.20;1659102;85;21030;-90
2021/10/09 01:33:58;;;;;;;9.53;2.90;;;;;;;2.52;56.74;102696.52;1659104;85;21070;-89
2021/10/09 01:36:34;;;;;;;7.60;2.52;;;;;;;2.50;56.89;102688.70;1659277;85;21064;-90
2021/10/09 01:39:03;;;;;;;7.37;2.75;;;;;;;2.47;57.20;102684.16;1657469;85;21992;-90
2021/10/09 01:41:28;;;;;;;13.00;2.87;;;;;;;2.43;57.50;102686.80;1658969;85;21043;-90
2021/10/09 01:43:54;;;;;;;7.42;2.58;;;;;;;2.41;57.62;102688.77;1659169;85;20887;-90
2021/10/09 01:46:21;;;;;;;11.90;3.90;;;;;;;2.39;57.84;102688.11;1658927;85;21226;-90
2021/10/09 01:48:46;;;;;;;9.05;3.25;;;;;;;2.35;58.22;102684.06;1659216;85;21053;-90
2021/10/09 01:51:13;;;;;;;13.53;3.52;;;;;;;2.31;58.86;102680.05;1659256;85;21033;-89
2021/10/09 01:53:40;;;;;;;9.70;3.87;;;;;;;2.28;59.00;102684.68;1658940;85;21014;-89
2021/10/09 01:56:07;;;;;;;8.68;2.83;;;;;;;2.25;59.28;102682.83;1659104;85;21082;-89
2021/10/09 01:58:35;;;;;;;6.45;2.52;;;;;;;2.22;59.57;102685.30;1659139;85;21598;-89
2021/10/09 02:01:01;;;;;;;14.35;3.35;;;;;;;2.20;59.96;102681.11;1659118;85;21101;-90
2021/10/09 02:03:27;;;;;;;11.68;2.60;;;;;;;2.17;60.04;102674.27;1680521;83;21129;-89
2021/10/09 02:05:53;;;;;;;10.68;2.83;;;;;;;2.15;60.11;102677.59;1692459;83;20891;-89
2021/10/09 02:08:19;;;;;;;9.40;2.65;;;;;;;2.13;60.82;102678.23;1692502;83;21089;-91
2021/10/09 02:13:13;;;;;;;11.12;2.98;;;;;;;2.09;60.77;102679.54;1692145;83;21522;-89
2021/10/09 02:18:32;;;;;;;8.48;2.90;;;;;;;2.07;60.89;102684.16;1692017;83;21046;-90
2021/10/09 02:26:20;;;;;;;16.05;4.50;;;;;;;2.09;60.91;102683.99;1691974;83;21063;-91
2021/10/09 02:28:46;;;;;;;5.95;2.92;;;;;;;2.10;60.81;102683.86;1692234;83;21141;-91
2021/10/09 02:31:12;;;;;;;7.45;3.02;;;;;;;2.07;61.10;102684.16;1692211;83;20900;-89
2021/10/09 02:33:38;;;;;;;7.75;2.60;;;;;;;2.07;61.26;102680.67;1692340;83;21007;-89
2021/10/09 02:36:05;;;;;;;9.35;2.80;;;;;;;2.04;61.12;102678.65;1690457;83;20860;-91
2021/10/09 02:38:31;;;;;;;7.53;2.83;;;;;;;2.04;61.06;102677.31;1692350;83;21069;-90
2021/10/09 02:40:57;;;;;;;7.35;2.22;;;;;;;2.04;61.51;102675.99;1692544;83;21617;-90
2021/10/09 02:43:23;;;;;;;8.10;2.50;;;;;;;2.03;61.79;102678.81;1692202;83;21030;-91
2021/10/09 02:45:49;;;;;;;9.13;2.60;;;;;;;2.00;61.97;102677.77;1692376;83;21046;-90
2021/10/09 02:48:16;;;;;;;7.10;2.60;;;;;;;1.98;62.15;102680.59;1692457;83;20919;-91
2021/10/09 02:50:44;;;;;;;7.47;2.62;;;;;;;1.95;62.71;102679.56;1692399;83;21010;-93
2021/10/09 02:53:11;;;;;;;8.05;2.30;;;;;;;1.91;63.01;102676.88;1692688;83;21646;-91
2021/10/09 02:55:37;;;;;;;7.83;2.42;;;;;;;1.89;63.14;102673.52;1693027;83;21105;-95
2021/10/09 02:58:07;;;;;;;8.20;2.70;;;;;;;1.86;63.66;102676.48;1693761;83;20978;-94
2021/10/09 03:00:33;;;;;;;8.45;2.40;;;;;;;1.85;63.85;102676.62;1528132;93;21085;-96
2021/10/09 03:03:02;;;;;;;7.55;2.17;;;;;;;1.82;64.73;102681.73;1491773;93;21658;-95
2021/10/09 03:05:29;;;;;;;11.40;2.25;;;;;;;1.77;65.06;102680.87;1539168;92;21259;-92
2021/10/09 03:07:55;;;;;;;8.38;2.33;;;;;;;1.74;64.79;102679.84;1539729;92;21642;-92
2021/10/09 03:10:21;;;;;;;10.23;2.45;;;;;;;1.71;65.11;102680.15;1541378;91;21138;-93
2021/10/09 03:12:47;;;;;;;6.67;2.67;;;;;;;1.71;65.66;102680.15;1537208;92;20996;-95
2021/10/09 03:15:14;;;;;;;8.25;2.70;;;;;;;1.72;65.62;102676.99;1538199;91;21225;-91
2021/10/09 03:17:41;;;;;;;10.82;2.75;;;;;;;1.71;65.77;102674.00;1548122;92;21560;-96
2021/10/09 03:20:11;;;;;;;11.53;2.37;;;;;;;1.70;65.79;102670.48;1505114;95;21023;-92
2021/10/09 03:22:44;;;;;;;10.25;2.40;;;;;;;1.63;66.19;102661.95;1505140;93;21059;-95
2021/10/09 03:25:24;;;;;;;;;;;;;;;;;;;;;
2021/10/09 03:27:42;;;;;;;5.67;2.20;;;;;;;1.69;66.69;102672.80;1476538;95;21101;-93
2021/10/09 03:30:10;;;;;;;6.75;2.42;;;;;;;1.67;67.15;102666.80;1483381;95;21640;-94
2021/10/09 03:32:37;;;;;;;11.85;1.98;;;;;;;1.68;67.44;102668.48;1465784;95;21133;-94
2021/10/09 03:35:04;;;;;;;8.18;2.70;;;;;;;1.68;67.17;102661.02;1458225;95;21157;-93
2021/10/09 03:37:30;;;;;;;8.48;2.47;;;;;;;1.69;67.05;102675.47;1463018;95;21050;-96
2021/10/09 03:40:01;;;;;;;6.05;2.70;;;;;;;1.70;67.10;102663.84;1482441;95;21485;-95
2021/10/09 03:42:31;;;;;;;7.25;2.15;;;;;;;1.72;67.09;102669.85;1456649;96;21238;-90
2021/10/09 03:52:48;;;;;;;7.15;2.50;;;;;;;1.81;67.03;102666.28;1438869;98;21210;-88
2021/10/09 03:55:17;;;;;;;10.35;2.98;;;;;;;1.85;66.73;102662.00;1441325;98;21303;-88
2021/10/09 03:57:44;;;;;;;6.05;2.50;;;;;;;1.87;66.85;102664.02;1471245;94;22272;-89
2021/10/09 04:00:13;;;;;;;15.13;2.22;;;;;;;1.90;66.74;102663.22;1474443;96;21206;-90
2021/10/09 04:02:42;;;;;;;6.37;2.45;;;;;;;1.93;66.69;102665.58;1473309;95;21634;-91
2021/10/09 04:05:16;;;;;;;6.30;2.17;;;;;;;1.97;65.95;102664.77;1520953;93;21740;-90
2021/10/09 04:07:42;;;;;;;6.60;2.17;;;;;;;2.04;65.47;102667.19;1503431;94;21132;-93
2021/10/09 04:10:09;;;;;;;7.35;2.12;;;;;;;2.10;65.20;102666.57;1503638;94;21018;-91
2021/10/09 04:12:36;;;;;;;10.63;2.25;;;;;;;2.15;65.09;102662.14;1503950;94;21157;-93
2021/10/09 04:15:03;;;;;;;17.98;3.52;;;;;;;2.20;64.43;102664.65;1504403;94;21112;-93
2021/10/09 04:17:29;;;;;;;11.53;3.00;;;;;;;2.27;64.46;102665.73;1530225;91;21129;-91
2021/10/09 04:19:55;;;;;;;11.73;2.67;;;;;;;2.33;64.31;102666.94;1523088;93;21132;-91
2021/10/09 04:22:21;;;;;;;7.22;2.62;;;;;;;2.40;64.48;102665.32;1551586;91;21012;-91
2021/10/09 04:24:47;;;;;;;10.05;2.92;;;;;;;2.48;64.39;102669.38;1545581;91;20940;-91
2021/10/09 04:27:15;;;;;;;7.78;3.00;;;;;;;2.55;63.90;102670.92;1565985;90;21673;-92
2021/10/09 04:29:40;;;;;;;13.32;2.70;;;;;;;2.63;63.73;102669.66;1562071;90;21070;-87
2021/10/09 04:32:06;;;;;;;11.18;2.35;;;;;;;2.85;62.36;102658.14;1566152;90;21862;-89
2021/10/09 04:34:32;;;;;;;10.45;2.67;;;;;;;2.85;62.36;102658.14;1566073;90;21067;-89
2021/10/09 04:36:58;;;;;;;8.08;2.70;;;;;;;3.00;61.80;102678.36;1566406;91;21439;-87
2021/10/09 04:39:25;;;;;;;16.45;3.30;;;;;;;3.08;61.25;102679.73;1566210;90;20935;-87
2021/10/09 04:41:52;;;;;;;7.50;2.87;;;;;;;3.49;60.97;102675.92;1565328;90;21102;-88
2021/10/09 04:44:28;;;;;;;;;;;;;;;;;;;;;
2021/10/09 04:46:45;;;;;;;7.90;2.50;;;;;;;6.73;54.47;102677.95;1577802;87;21157;-90
2021/10/09 04:49:11;;;;;;;10.75;2.95;;;;;;;7.84;50.97;102677.45;1567879;89;21008;-90
2021/10/09 04:51:37;;;;;;;6.12;2.60;;;;;;;9.04;48.64;102682.00;1581516;89;20986;-90
2021/10/09 04:54:03;;;;;;;9.43;2.90;;;;;;;10.09;45.64;102675.84;1577377;89;21126;-90
2021/10/09 04:56:29;;;;;;;6.65;3.08;;;;;;;10.91;43.99;102673.27;1582596;88;22316;-90
2021/10/09 04:58:55;;;;;;;9.13;3.12;;;;;;;11.71;41.63;102685.16;1590083;87;21577;-91
2021/10/09 05:01:21;;;;;;;10.30;3.75;;;;;;;12.23;39.64;102680.48;1590226;87;20926;-91
2021/10/09 05:03:47;;;;;;;9.10;3.45;;;;;;;12.93;39.18;102672.98;1594799;86;21607;-93
2021/10/09 05:06:13;;;;;;;8.85;3.00;;;;;;;13.67;37.93;102676.21;1621361;86;21027;-92
2021/10/09 05:08:39;;;;;;;10.23;2.75;;;;;;;14.01;36.05;102681.47;1635367;86;21093;-93
2021/10/09 05:11:09;;;;;;;8.35;2.87;;;;;;;14.51;35.55;102683.80;1621172;86;21074;-94
2021/10/09 05:13:36;;;;;;;8.55;2.70;;;;;;;15.21;34.47;102681.08;1586802;88;21023;-92
2021/10/09 05:16:02;;;;;;;9.30;2.90;;;;;;;15.55;33.37;102682.56;1592362;90;21643;-94
2021/10/09 05:18:29;;;;;;;7.20;3.00;;;;;;;15.34;32.83;102679.16;1542377;91;21122;-89
2021/10/09 05:20:55;;;;;;;5.87;2.77;;;;;;;15.73;31.97;102682.11;1555599;90;21142;-94
2021/10/09 05:23:20;;;;;;;11.85;2.92;;;;;;;15.75;31.80;102684.06;1546255;91;21077;-94
2021/10/09 05:25:48;;;;;;;6.45;2.55;;;;;;;15.88;31.08;102688.69;1554862;91;21027;-96
2021/10/09 05:28:17;;;;;;;10.70;2.47;;;;;;;15.78;30.98;102684.40;1545348;92;21074;-88
2021/10/09 05:30:47;;;;;;;7.42;2.62;;;;;;;16.16;30.73;102685.62;1545055;92;21138;-87
2021/10/09 05:35:41;;;;;;;10.43;3.02;;;;;;;17.05;29.63;102684.01;1526499;92;21548;-87
2021/10/09 05:38:08;;;;;;;8.40;2.60;;;;;;;16.88;29.72;102680.77;1528042;92;21077;-90
2021/10/09 05:40:35;;;;;;;15.68;4.22;;;;;;;17.02;29.65;102680.70;1513505;94;21069;-89
2021/10/09 05:43:01;;;;;;;8.65;5.03;;;;;;;17.54;29.56;102675.90;1513320;94;21180;-90
2021/10/09 05:45:26;;;;;;;11.10;4.53;;;;;;;17.87;28.31;102664.81;1513504;93;21348;-90
2021/10/09 05:47:52;;;;;;;9.40;3.87;;;;;;;18.16;27.36;102668.62;1513570;94;21663;-88
2021/10/09 05:50:23;;;;;;;9.75;4.12;;;;;;;18.09;27.60;102671.58;1513680;94;21660;-87
2021/10/09 05:52:53;;;;;;;14.05;3.70;;;;;;;18.14;26.46;102664.78;1513635;94;21161;-88
2021/10/09 05:55:19;;;;;;;9.40;4.03;;;;;;;17.40;26.42;102666.73;1513501;94;21057;-86
2021/10/09 06:00:48;;;;;;;11.55;3.45;;;;;;;16.90;26.97;102673.73;1511844;93;21057;-89
2021/10/09 06:59:48;;;;;;;16.20;5.58;;;;;;;19.36;23.53;102636.57;1493591;94;21624;-87
2021/10/09 07:02:14;;;;;;;18.75;5.30;;;;;;;19.54;23.77;102637.98;1493984;96;20990;-90
2021/10/09 07:04:40;;;;;;;18.35;5.87;;;;;;;19.51;23.55;102638.52;1495461;94;21707;-88
2021/10/09 07:07:08;;;;;;;18.62;5.62;;;;;;;18.36;23.81;102637.41;1496811;94;21214;-86
2021/10/09 07:09:33;;;;;;;64.97;23.00;;;;;;;17.29;24.89;102643.16;1497716;93;21130;-90
2021/10/09 07:11:59;;;;;;;48.92;16.60;;;;;;;16.77;25.32;102640.34;1479914;94;21831;-85
2021/10/09 07:14:25;;;;;;;24.72;9.00;;;;;;;16.35;26.05;102648.95;1494608;94;21098;-90
2021/10/09 07:16:51;;;;;;;23.62;9.08;;;;;;;16.30;26.07;102648.86;1498929;94;21118;-87
2021/10/09 07:19:17;;;;;;;23.85;9.25;;;;;;;16.63;25.67;102639.55;1495706;94;21217;-89
2021/10/09 07:21:44;;;;;;;25.10;8.75;;;;;;;16.78;25.77;102639.80;1479877;94;21139;-89
2021/10/09 07:24:10;;;;;;;21.27;7.97;;;;;;;17.15;25.95;102634.57;1499950;92;21108;-90
2021/10/09 07:26:35;;;;;;;22.77;9.58;;;;;;;18.08;25.56;102630.89;1498055;94;21160;-85
2021/10/09 07:29:02;;;;;;;26.40;9.95;;;;;;;18.35;24.32;102641.74;1495809;94;21670;-90
2021/10/09 07:31:28;;;;;;;35.80;10.88;;;;;;;18.45;24.11;102639.65;1497431;94;21160;-90
2021/10/09 07:33:53;;;;;;;27.05;9.73;;;;;;;18.43;23.55;102630.34;1542908;90;21045;-89
2021/10/09 07:36:19;;;;;;;27.85;8.38;;;;;;;18.42;23.52;102656.55;1587914;88;20943;-90
2021/10/09 07:38:45;;;;;;;23.12;8.03;;;;;;;18.78;23.43;102635.23;1605360;86;20924;-89
2021/10/09 07:41:12;;;;;;;18.17;7.83;;;;;;;19.04;23.52;102631.27;1627035;86;22422;-86
2021/10/09 07:43:38;;;;;;;23.73;7.85;;;;;;;19.24;23.04;102627.23;1627174;86;21236;-89
2021/10/09 07:46:04;;;;;;;23.60;6.95;;;;;;;18.83;23.20;102634.45;1605571;86;21091;-92
2021/10/09 07:48:29;;;;;;;21.85;6.35;;;;;;;18.82;23.37;102632.27;1617332;86;20930;-92
2021/10/09 07:50:56;;;;;;;17.50;6.75;;;;;;;19.05;23.22;102622.78;1620720;86;20991;-92
2021/10/09 07:53:23;;;;;;;15.98;5.75;;;;;;;19.20;22.53;102611.08;1605501;88;21153;-90
2021/10/09 07:55:49;;;;;;;12.00;5.17;;;;;;;19.52;22.30;102623.20;1606710;86;21092;-90
2021/10/09 07:58:15;;;;;;;47.58;6.62;;;;;;;19.65;22.17;102622.45;1617243;87;20971;-93
2021/10/09 08:00:42;;;;;;;24.35;6.28;;;;;;;20.05;21.68;102623.55;1632534;86;20940;-95
2021/10/09 08:03:08;;;;;;;26.20;5.20;;;;;;;19.88;21.62;102618.34;1635162;86;21068;-92
2021/10/09 08:05:34;;;;;;;12.23;4.40;;;;;;;19.87;21.50;102626.29;1634340;86;21200;-94
2021/10/09 08:08:02;;;;;;;17.10;6.28;;;;;;;20.03;21.74;102610.68;1634732;86;21116;-93
2021/10/09 08:10:28;;;;;;;15.25;4.70;;;;;;;20.11;21.23;102608.77;1585551;87;21071;-91
2021/10/09 08:12:54;;;;;;;15.93;4.30;;;;;;;20.13;20.87;102601.11;1606654;87;20969;-92
2021/10/09 08:15:20;;;;;;;51.23;15.88;;;;;;;20.10;20.70;102615.34;1601175;89;20913;-92
2021/10/09 08:17:46;;;;;;;21.48;3.70;;;;;;;20.33;20.80;102627.66;1606016;89;21033;-95
2021/10/09 08:20:12;;;;;;;21.05;4.20;;;;;;;20.19;20.46;102608.22;1606030;89;20901;-92
2021/10/09 08:35:23;;;;;;;8.90;3.65;;;;;;;20.47;20.61;102610.08;1588285;88;21099;-94
2021/10/09 08:38:54;;;;;;;13.85;3.17;;;;;;;19.39;20.51;102599.11;1545076;91;21503;-92
2021/10/09 08:41:23;;;;;;;9.90;2.65;;;;;;;19.30;20.97;102600.73;1546440;90;21106;-89
2021/10/09 08:43:51;;;;;;;11.65;4.17;;;;;;;19.38;21.02;102600.19;1560792;90;21818;-90
2021/10/09 08:46:19;;;;;;;8.30;2.72;;;;;;;18.82;20.99;102602.73;1557590;90;21181;-91
2021/10/09 08:48:49;;;;;;;10.60;3.58;;;;;;;18.28;21.55;102595.57;1552846;90;21090;-93
2021/10/09 08:51:25;;;;;;;8.30;2.45;;;;;;;17.45;22.11;102599.20;1552848;90;21126;-90
2021/10/09 08:53:53;;;;;;;10.72;3.33;;;;;;;16.89;22.66;102599.37;1553598;90;21828;-91
2021/10/09 08:56:43;;;;;;;16.00;3.00;;;;;;;16.40;23.17;102600.56;1552782;90;21925;-93
2021/10/09 08:59:24;;;;;;;10.43;2.98;;;;;;;16.06;23.23;102615.56;1553172;90;21636;-89
2021/10/09 09:04:55;;;;;;;5.15;2.12;;;;;;;15.29;24.39;102593.47;1553171;90;21156;-89
2021/10/09 09:37:28;;;;;;;9.98;1.67;;;;;;;13.72;25.32;102582.87;1503137;94;21135;-89
2021/10/09 09:39:45;;;;;;;6.83;2.27;;;;;;;13.69;25.23;102572.50;1499920;94;21140;-90
2021/10/09 09:42:11;;;;;;;22.05;2.45;;;;;;;13.67;25.55;102563.23;1503158;94;21101;-91
2021/10/09 09:44:57;;;;;;;15.98;2.65;;;;;;;13.53;24.74;102568.55;1503124;94;21144;-88
2021/10/09 09:47:33;;;;;;;10.15;1.72;;;;;;;13.53;24.74;102568.55;1502599;94;21062;-91
2021/10/09 09:50:06;;;;;;;5.90;2.00;;;;;;;13.54;24.88;102564.27;1481784;96;21433;-89
2021/10/09 09:52:38;;;;;;;11.65;2.00;;;;;;;13.53;24.65;102564.48;1466506;96;21609;-90
2021/10/09 09:55:07;;;;;;;22.37;2.12;;;;;;;13.45;25.00;102567.55;1483774;95;21091;-89
2021/10/09 09:57:36;;;;;;;4.45;1.37;;;;;;;13.47;24.36;102564.91;1483662;96;21734;-91
2021/10/09 10:00:12;;;;;;;12.25;1.70;;;;;;;13.40;24.54;102559.56;1483672;96;21204;-89
2021/10/09 10:02:50;;;;;;;8.90;1.82;;;;;;;13.40;24.39;102547.91;1483643;96;21963;-89
2021/10/09 10:05:19;;;;;;;7.03;1.80;;;;;;;13.44;24.34;102550.98;1462163;96;21565;-88
2021/10/09 10:07:46;;;;;;;5.97;2.00;;;;;;;13.54;24.30;102543.95;1454189;98;21095;-90
2021/10/09 10:10:12;;;;;;;13.00;2.45;;;;;;;13.60;24.82;102547.63;1495655;95;21123;-90
2021/10/09 10:12:40;;;;;;;8.85;2.87;;;;;;;13.80;24.47;102563.05;1495737;95;21289;-90
2021/10/09 10:15:11;;;;;;;10.60;2.12;;;;;;;13.86;24.18;102547.20;1495679;95;22027;-89
2021/10/09 10:17:42;;;;;;;5.75;1.70;;;;;;;13.88;23.93;102546.13;1495705;94;21018;-90
2021/10/09 10:20:14;;;;;;;13.22;2.30;;;;;;;13.78;24.02;102549.42;1495812;94;21106;-91
2021/10/09 10:22:45;;;;;;;5.67;1.67;;;;;;;13.77;22.99;102548.61;1457767;97;21150;-89
2021/10/09 10:25:25;;;;;;;6.97;2.10;;;;;;;13.73;23.28;102545.23;1457799;97;21153;-91
2021/10/09 10:28:17;;;;;;;28.32;2.95;;;;;;;13.70;23.57;102545.69;1466143;95;21246;-92
2021/10/09 10:30:49;;;;;;;8.53;1.80;;;;;;;13.63;23.53;102541.73;1495084;94;21138;-91
2021/10/09 10:33:21;;;;;;;25.48;2.62;;;;;;;13.67;23.98;102542.09;1496880;94;21458;-90
2021/10/09 10:35:47;;;;;;;9.18;2.55;;;;;;;13.66;23.55;102531.79;1508328;92;21631;-88
2021/10/09 10:38:25;;;;;;;12.07;2.08;;;;;;;13.73;23.65;102531.14;1524165;91;21106;-91
2021/10/09 10:40:59;;;;;;;8.83;2.80;;;;;;;13.85;24.01;102529.30;1499924;92;21209;-91
2021/10/09 10:46:42;;;;;;;8.67;2.20;;;;;;;14.08;23.72;102538.48;1517708;93;20287;-90
2021/10/09 10:49:28;;;;;;;7.62;2.17;;;;;;;14.08;23.21;102542.02;1536277;91;21638;-89
2021/10/09 10:51:57;;;;;;;15.45;3.02;;;;;;;14.13;23.44;102542.69;1519756;92;21171;-91
2021/10/09 10:57:03;;;;;;;11.43;2.67;;;;;;;14.05;23.34;102537.07;1567668;90;21623;-93
2021/10/09 11:02:38;;;;;;;11.22;2.47;;;;;;;14.06;23.78;102536.56;1554490;92;21495;-93
2021/10/09 11:05:12;;;;;;;8.63;2.80;;;;;;;14.18;24.23;102529.25;1552953;90;21187;-91
2021/10/09 11:07:46;;;;;;;10.08;3.00;;;;;;;14.38;24.68;102529.40;1505707;93;21680;-94
2021/10/09 11:10:22;;;;;;;8.38;2.30;;;;;;;14.49;23.99;102529.38;1504093;94;21194;-92
2021/10/09 11:12:52;;;;;;;15.98;2.62;;;;;;;14.39;23.95;102527.00;1506602;94;21147;-95
2021/10/09 11:15:23;;;;;;;8.13;2.70;;;;;;;14.26;23.86;102528.05;1506568;95;21679;-93
2021/10/09 11:18:02;;;;;;;21.33;3.27;;;;;;;14.21;24.33;102531.49;1506522;95;21672;-92
2021/10/09 11:20:37;;;;;;;7.53;2.83;;;;;;;14.16;24.10;102528.66;1505201;95;21121;-91
2021/10/09 11:23:09;;;;;;;8.28;2.95;;;;;;;14.02;24.09;102533.47;1505065;95;21271;-92
2021/10/09 11:25:41;;;;;;;23.42;5.97;;;;;;;13.97;24.46;102530.66;1505317;95;21154;-92
2021/10/09 11:28:29;;;;;;;28.65;6.72;;;;;;;13.97;24.29;102534.73;1505511;95;21095;-91
2021/10/09 11:30:54;;;;;;;20.60;5.00;;;;;;;13.96;23.68;102528.17;1520487;93;21094;-89
2021/10/09 11:33:27;;;;;;;13.75;4.85;;;;;;;13.96;23.67;102521.39;1527771;93;22247;-91
2021/10/09 11:35:55;;;;;;;11.90;3.95;;;;;;;14.03;24.30;102528.88;1527350;93;21086;-91
2021/10/09 11:38:25;;;;;;;11.45;3.90;;;;;;;14.10;23.92;102516.05;1527546;93;21174;-88
2021/10/09 11:40:54;;;;;;;15.30;3.40;;;;;;;14.16;24.16;102507.50;1527658;93;21499;-88
2021/10/09 11:56:27;;;;;;;9.93;2.85;;;;;;;13.94;24.25;102501.32;1453187;98;21742;-88
2021/10/09 12:01:45;;;;;;;11.40;3.02;;;;;;;14.02;24.41;102503.66;1431390;100;21218;-86
2021/10/09 12:04:18;;;;;;;12.70;2.75;;;;;;;13.99;24.61;102502.77;1459573;95;21085;-88
2021/10/09 12:06:59;;;;;;;9.40;2.93;;;;;;;14.05;24.78;102504.53;1491002;95;21177;-87
2021/10/09 12:09:42;;;;;;;7.92;2.60;;;;;;;14.11;24.73;102499.23;1456573;97;21098;-90
2021/10/09 12:12:21;;;;;;;7.10;2.70;;;;;;;14.21;24.79;102495.42;1474505;97;21190;-90
2021/10/09 12:14:51;;;;;;;9.65;2.72;;;;;;;14.20;24.12;102497.81;1474613;95;21103;-88
2021/10/09 12:17:21;;;;;;;9.53;3.15;;;;;;;14.16;24.44;102489.34;1474711;95;21133;-89
2021/10/09 12:20:04;;;;;;;12.55;3.60;;;;;;;14.16;24.67;102491.23;1474553;96;21636;-89
2021/10/09 12:22:43;;;;;;;18.20;3.02;;;;;;;14.18;24.55;102487.76;1474339;97;21060;-88
2021/10/09 12:27:56;;;;;;;7.30;2.40;;;;;;;14.00;23.85;102488.17;1456767;97;21116;-92
2021/10/09 12:30:35;;;;;;;11.40;2.17;;;;;;;13.97;24.15;102495.42;1372024;103;21186;-88
2021/10/09 12:33:01;;;;;;;10.48;2.55;;;;;;;13.92;24.29;102491.23;1372106;103;21174;-88
2021/10/09 12:35:32;;;;;;;14.20;2.72;;;;;;;13.91;24.77;102495.52;1370954;103;21308;-89
2021/10/09 12:38:08;;;;;;;13.68;2.98;;;;;;;13.84;24.44;102490.22;1369961;103;21603;-91
2021/10/09 12:40:44;;;;;;;9.33;3.45;;;;;;;13.82;24.68;102492.33;1372355;103;21171;-88
2021/10/09 12:43:15;;;;;;;14.07;3.83;;;;;;;13.80;24.71;102483.09;1400381;101;21163;-87
2021/10/09 12:45:41;;;;;;;12.45;3.27;;;;;;;13.76;24.55;102484.61;1402511;102;21416;-88
2021/10/09 12:48:08;;;;;;;14.45;3.58;;;;;;;13.69;24.40;102484.45;1399716;102;21089;-87
2021/10/09 12:50:38;;;;;;;17.65;2.83;;;;;;;13.66;25.01;102487.09;1399727;102;21217;-87
2021/10/09 12:53:05;;;;;;;11.28;2.58;;;;;;;13.63;24.68;102486.20;1399551;102;21640;-89
2021/10/09 12:55:33;;;;;;;20.10;6.58;;;;;;;13.54;24.40;102481.65;1399456;102;21147;-86
2021/10/09 12:58:04;;;;;;;21.70;7.50;;;;;;;13.50;24.63;102487.25;1399850;102;21180;-87
2021/10/09 13:00:31;;;;;;;15.40;4.40;;;;;;;13.47;24.73;102483.66;1410763;99;21100;-87
2021/10/09 13:02:58;;;;;;;18.73;5.72;;;;;;;13.45;24.77;102483.05;1431545;95;21933;-90
2021/10/09 13:05:27;;;;;;;22.87;6.78;;;;;;;13.39;24.69;102478.56;1468216;95;21043;-90
2021/10/09 13:07:57;;;;;;;18.23;4.58;;;;;;;13.35;24.95;102480.92;1485503;95;21142;-86
2021/10/09 13:10:23;;;;;;;10.38;3.67;;;;;;;13.31;25.28;102474.30;1530598;92;21642;-86
2021/10/09 13:12:50;;;;;;;14.68;3.20;;;;;;;13.27;25.32;102475.83;1531006;92;21093;-85
2021/10/09 13:15:18;;;;;;;10.15;3.00;;;;;;;13.24;25.58;102468.67;1530774;92;21191;-86
2021/10/09 13:17:46;;;;;;;10.53;2.65;;;;;;;13.23;25.61;102483.25;1530855;92;21058;-85
2021/10/09 13:20:12;;;;;;;12.07;2.60;;;;;;;13.17;25.55;102477.69;1544807;90;21244;-83
2021/10/09 13:22:38;;;;;;;10.13;2.87;;;;;;;13.12;25.86;102481.64;1581141;89;21060;-83
2021/10/09 13:25:06;;;;;;;8.75;2.33;;;;;;;13.05;25.43;102488.19;1591257;88;21096;-86
2021/10/09 13:27:32;;;;;;;12.10;3.37;;;;;;;13.03;25.36;102475.41;1597904;89;21121;-87
2021/10/09 13:30:01;;;;;;;9.68;2.42;;;;;;;13.00;25.54;102471.80;1597451;88;20928;-85
2021/10/09 13:32:27;;;;;;;8.48;2.50;;;;;;;12.95;25.52;102463.04;1597016;88;21099;-84
2021/10/09 13:34:53;;;;;;;10.00;2.77;;;;;;;12.92;25.58;102468.38;1597533;88;21153;-84
2021/10/09 13:37:21;;;;;;;8.08;3.15;;;;;;;12.88;25.83;102460.44;1597509;88;21586;-86
2021/10/09 13:39:48;;;;;;;5.80;2.12;;;;;;;12.86;25.88;102450.36;1570656;89;21015;-85
2021/10/09 13:42:14;;;;;;;7.28;1.85;;;;;;;12.82;26.18;102448.32;1572880;89;21074;-84
2021/10/09 13:44:41;;;;;;;4.35;2.10;;;;;;;12.77;26.46;102444.15;1572930;89;21570;-84
2021/10/09 13:47:07;;;;;;;13.15;2.35;;;;;;;12.73;26.48;102448.66;1606102;87;21071;-85
2021/10/09 13:49:33;;;;;;;6.92;2.02;;;;;;;12.71;26.10;102445.36;1652523;86;21092;-85
2021/10/09 13:51:59;;;;;;;13.90;2.58;;;;;;;12.69;26.08;102443.92;1652713;86;21400;-85
2021/10/09 13:54:25;;;;;;;10.50;2.50;;;;;;;12.73;25.75;102442.41;1652592;86;21045;-88
2021/10/09 13:56:51;;;;;;;8.88;2.17;;;;;;;12.72;25.87;102442.94;1652706;86;21008;-86
2021/10/09 13:59:17;;;;;;;9.43;2.20;;;;;;;12.72;26.02;102431.30;1652476;86;21687;-87
2021/10/09 14:01:43;;;;;;;13.80;2.92;;;;;;;12.70;26.04;102426.09;1652495;86;21415;-82
2021/10/09 14:04:09;;;;;;;6.90;2.42;;;;;;;12.68;26.06;102428.77;1652409;86;21158;-85
2021/10/09 14:06:36;;;;;;;6.42;2.52;;;;;;;12.69;25.96;102429.87;1656083;85;21047;-88